Terminal Aerodrome Forecast
Issued by NWS Goodland, KS

Home | Current Version | Previous Version | Text Only | Print | Product List | Glossary On
Versions: 1 2 3 4 5 6 7 8 9 10 11 12 13 14 15 16 17 18 19 20 21
000
FTUS43 KGLD 181845 RRA
TAFGLD
TAF
KGLD 181845Z 1819/1918 15011KT P6SM BKN035
     FM190000 14009KT P6SM VCTS BKN035CB
     FM190600 33012G20KT 5SM -RA BR BKN020
     FM191400 35025G40KT P6SM BKN035=

USA.gov is the U.S. government's official web portal to all federal, state and local government web resources and services.